sensor_id;sensor_type;location;lat;lon;timestamp;temperature;humidity
19680;DHT22;9989;48.962;9.182;2022-12-24T00:00:58;13.30;99.90
19680;DHT22;9989;48.962;9.182;2022-12-24T00:03:23;13.40;99.90
19680;DHT22;9989;48.962;9.182;2022-12-24T00:05:49;13.40;99.90
19680;DHT22;9989;48.962;9.182;2022-12-24T00:08:15;13.40;99.90
19680;DHT22;9989;48.962;9.182;2022-12-24T00:10:40;13.40;99.90
19680;DHT22;9989;48.962;9.182;2022-12-24T00:13:06;13.40;99.90
19680;DHT22;9989;48.962;9.182;2022-12-24T00:15:31;13.40;99.90
19680;DHT22;9989;48.962;9.182;2022-12-24T00:17:57;13.40;99.90
19680;DHT22;9989;48.962;9.182;2022-12-24T00:20:22;13.40;99.90
19680;DHT22;9989;48.962;9.182;2022-12-24T00:22:49;13.40;99.90
19680;DHT22;9989;48.962;9.182;2022-12-24T00:25:14;13.40;99.90
19680;DHT22;9989;48.962;9.182;2022-12-24T00:27:40;13.50;99.90
19680;DHT22;9989;48.962;9.182;2022-12-24T00:30:06;13.40;99.90
19680;DHT22;9989;48.962;9.182;2022-12-24T00:32:33;13.50;99.90
19680;DHT22;9989;48.962;9.182;2022-12-24T00:34:58;13.40;99.90
19680;DHT22;9989;48.962;9.182;2022-12-24T00:37:24;13.40;99.90
19680;DHT22;9989;48.962;9.182;2022-12-24T00:39:49;13.30;99.90
19680;DHT22;9989;48.962;9.182;2022-12-24T00:42:15;13.30;99.90
19680;DHT22;9989;48.962;9.182;2022-12-24T00:44:40;13.20;99.90
19680;DHT22;9989;48.962;9.182;2022-12-24T00:47:06;13.30;99.90
19680;DHT22;9989;48.962;9.182;2022-12-24T00:49:32;13.20;99.90
19680;DHT22;9989;48.962;9.182;2022-12-24T00:51:57;13.20;99.90
19680;DHT22;9989;48.962;9.182;2022-12-24T00:54:23;13.10;99.90
19680;DHT22;9989;48.962;9.182;2022-12-24T00:56:51;13.10;99.90
19680;DHT22;9989;48.962;9.182;2022-12-24T00:59:16;13.10;99.90
19680;DHT22;9989;48.962;9.182;2022-12-24T01:01:42;13.10;99.90
19680;DHT22;9989;48.962;9.182;2022-12-24T01:04:08;13.00;99.90
19680;DHT22;9989;48.962;9.182;2022-12-24T01:06:52;13.00;99.90
19680;DHT22;9989;48.962;9.182;2022-12-24T01:09:17;13.00;99.90
19680;DHT22;9989;48.962;9.182;2022-12-24T01:11:43;13.10;99.90
19680;DHT22;9989;48.962;9.182;2022-12-24T01:14:08;13.00;99.90
19680;DHT22;9989;48.962;9.182;2022-12-24T01:16:34;13.10;99.90
19680;DHT22;9989;48.962;9.182;2022-12-24T01:18:59;13.00;99.90
19680;DHT22;9989;48.962;9.182;2022-12-24T01:21:25;13.00;99.90
19680;DHT22;9989;48.962;9.182;2022-12-24T01:23:51;12.90;99.90
19680;DHT22;9989;48.962;9.182;2022-12-24T01:26:17;12.90;99.90
19680;DHT22;9989;48.962;9.182;2022-12-24T01:28:42;12.90;99.90
19680;DHT22;9989;48.962;9.182;2022-12-24T01:31:13;12.80;99.90
19680;DHT22;9989;48.962;9.182;2022-12-24T01:33:38;12.80;99.90
19680;DHT22;9989;48.962;9.182;2022-12-24T01:36:04;12.70;99.90
19680;DHT22;9989;48.962;9.182;2022-12-24T01:38:30;12.60;99.90
19680;DHT22;9989;48.962;9.182;2022-12-24T01:40:56;12.50;99.90
19680;DHT22;9989;48.962;9.182;2022-12-24T01:43:40;12.40;99.90
19680;DHT22;9989;48.962;9.182;2022-12-24T01:53:40;12.20;99.90
19680;DHT22;9989;48.962;9.182;2022-12-24T01:56:07;12.20;99.90
19680;DHT22;9989;48.962;9.182;2022-12-24T01:58:36;12.10;99.90
19680;DHT22;9989;48.962;9.182;2022-12-24T02:01:02;12.00;99.90
19680;DHT22;9989;48.962;9.182;2022-12-24T02:03:28;12.00;99.90
19680;DHT22;9989;48.962;9.182;2022-12-24T02:05:56;12.00;99.90
19680;DHT22;9989;48.962;9.182;2022-12-24T02:08:22;11.90;99.90
19680;DHT22;9989;48.962;9.182;2022-12-24T02:10:48;11.90;99.90
19680;DHT22;9989;48.962;9.182;2022-12-24T02:13:17;11.80;99.90
19680;DHT22;9989;48.962;9.182;2022-12-24T02:16:00;11.80;99.90
19680;DHT22;9989;48.962;9.182;2022-12-24T02:24:28;11.70;99.90
19680;DHT22;9989;48.962;9.182;2022-12-24T02:29:58;11.80;99.90
19680;DHT22;9989;48.962;9.182;2022-12-24T02:32:53;11.80;99.90
19680;DHT22;9989;48.962;9.182;2022-12-24T02:38:05;11.80;99.90
19680;DHT22;9989;48.962;9.182;2022-12-24T02:40:44;11.80;99.90
19680;DHT22;9989;48.962;9.182;2022-12-24T02:43:15;11.80;99.90
19680;DHT22;9989;48.962;9.182;2022-12-24T02:45:45;11.80;99.90
19680;DHT22;9989;48.962;9.182;2022-12-24T02:48:14;11.80;99.90
19680;DHT22;9989;48.962;9.182;2022-12-24T02:50:54;11.80;99.90
19680;DHT22;9989;48.962;9.182;2022-12-24T02:53:19;11.80;99.90
19680;DHT22;9989;48.962;9.182;2022-12-24T03:01:16;11.80;99.90
19680;DHT22;9989;48.962;9.182;2022-12-24T03:03:47;11.70;99.90
19680;DHT22;9989;48.962;9.182;2022-12-24T03:06:15;11.80;99.90
19680;DHT22;9989;48.962;9.182;2022-12-24T03:08:53;11.80;99.90
19680;DHT22;9989;48.962;9.182;2022-12-24T03:11:22;11.80;99.90
19680;DHT22;9989;48.962;9.182;2022-12-24T03:13:48;11.80;99.90
19680;DHT22;9989;48.962;9.182;2022-12-24T03:16:21;11.90;99.90
19680;DHT22;9989;48.962;9.182;2022-12-24T03:18:49;11.90;99.90
19680;DHT22;9989;48.962;9.182;2022-12-24T03:21:31;12.00;99.90
19680;DHT22;9989;48.962;9.182;2022-12-24T03:23:57;12.00;99.90
19680;DHT22;9989;48.962;9.182;2022-12-24T03:26:24;12.00;99.90
19680;DHT22;9989;48.962;9.182;2022-12-24T03:28:51;12.00;99.90
19680;DHT22;9989;48.962;9.182;2022-12-24T03:31:16;12.00;99.90
19680;DHT22;9989;48.962;9.182;2022-12-24T03:33:43;11.90;99.90
19680;DHT22;9989;48.962;9.182;2022-12-24T03:36:09;11.90;99.90
19680;DHT22;9989;48.962;9.182;2022-12-24T03:38:35;11.90;99.90
19680;DHT22;9989;48.962;9.182;2022-12-24T03:41:01;11.90;99.90
19680;DHT22;9989;48.962;9.182;2022-12-24T03:43:27;11.90;99.90
19680;DHT22;9989;48.962;9.182;2022-12-24T03:45:53;11.90;99.90
19680;DHT22;9989;48.962;9.182;2022-12-24T03:48:18;12.00;99.90
19680;DHT22;9989;48.962;9.182;2022-12-24T03:50:44;12.00;99.90
19680;DHT22;9989;48.962;9.182;2022-12-24T03:53:09;12.00;99.90
19680;DHT22;9989;48.962;9.182;2022-12-24T03:55:36;12.00;99.90
19680;DHT22;9989;48.962;9.182;2022-12-24T03:58:02;12.00;99.90
19680;DHT22;9989;48.962;9.182;2022-12-24T04:00:30;12.00;99.90
19680;DHT22;9989;48.962;9.182;2022-12-24T04:02:55;12.00;99.90
19680;DHT22;9989;48.962;9.182;2022-12-24T04:05:21;12.10;99.90
19680;DHT22;9989;48.962;9.182;2022-12-24T04:07:47;12.10;99.90
19680;DHT22;9989;48.962;9.182;2022-12-24T04:10:14;12.10;99.90
19680;DHT22;9989;48.962;9.182;2022-12-24T04:12:40;12.10;99.90
19680;DHT22;9989;48.962;9.182;2022-12-24T04:15:08;12.10;99.90
19680;DHT22;9989;48.962;9.182;2022-12-24T04:17:34;12.10;99.90
19680;DHT22;9989;48.962;9.182;2022-12-24T04:19:59;12.10;99.90
19680;DHT22;9989;48.962;9.182;2022-12-24T04:22:28;12.10;99.90
19680;DHT22;9989;48.962;9.182;2022-12-24T04:24:53;12.20;99.90
19680;DHT22;9989;48.962;9.182;2022-12-24T04:27:19;12.10;99.90
19680;DHT22;9989;48.962;9.182;2022-12-24T04:29:44;12.20;99.90
19680;DHT22;9989;48.962;9.182;2022-12-24T04:32:10;12.10;99.90
19680;DHT22;9989;48.962;9.182;2022-12-24T04:34:36;12.10;99.90
19680;DHT22;9989;48.962;9.182;2022-12-24T04:37:04;12.10;99.90
19680;DHT22;9989;48.962;9.182;2022-12-24T04:39:32;12.00;99.90
19680;DHT22;9989;48.962;9.182;2022-12-24T04:41:57;12.00;99.90
19680;DHT22;9989;48.962;9.182;2022-12-24T04:44:23;11.90;99.90
19680;DHT22;9989;48.962;9.182;2022-12-24T04:46:48;11.80;99.90
19680;DHT22;9989;48.962;9.182;2022-12-24T04:49:14;11.80;99.90
19680;DHT22;9989;48.962;9.182;2022-12-24T04:51:40;11.80;99.90
19680;DHT22;9989;48.962;9.182;2022-12-24T04:54:05;11.70;99.90
19680;DHT22;9989;48.962;9.182;2022-12-24T04:56:31;11.70;99.90
19680;DHT22;9989;48.962;9.182;2022-12-24T04:58:58;11.70;99.90
19680;DHT22;9989;48.962;9.182;2022-12-24T05:01:28;11.70;99.90
19680;DHT22;9989;48.962;9.182;2022-12-24T05:03:54;11.60;99.90
19680;DHT22;9989;48.962;9.182;2022-12-24T05:06:25;11.60;99.90
19680;DHT22;9989;48.962;9.182;2022-12-24T05:08:55;11.50;99.90
19680;DHT22;9989;48.962;9.182;2022-12-24T05:11:21;11.50;99.90
19680;DHT22;9989;48.962;9.182;2022-12-24T05:13:47;11.50;99.90
19680;DHT22;9989;48.962;9.182;2022-12-24T05:16:15;11.40;99.90
19680;DHT22;9989;48.962;9.182;2022-12-24T05:18:40;11.40;99.90
19680;DHT22;9989;48.962;9.182;2022-12-24T05:21:16;11.40;99.90
19680;DHT22;9989;48.962;9.182;2022-12-24T05:23:43;11.40;99.90
19680;DHT22;9989;48.962;9.182;2022-12-24T05:26:38;11.40;99.90
19680;DHT22;9989;48.962;9.182;2022-12-24T05:29:05;11.40;99.90
19680;DHT22;9989;48.962;9.182;2022-12-24T05:31:32;11.50;99.90
19680;DHT22;9989;48.962;9.182;2022-12-24T05:33:59;11.40;99.90
19680;DHT22;9989;48.962;9.182;2022-12-24T05:36:25;11.40;99.90
19680;DHT22;9989;48.962;9.182;2022-12-24T05:38:51;11.40;99.90
19680;DHT22;9989;48.962;9.182;2022-12-24T05:41:17;11.40;99.90
19680;DHT22;9989;48.962;9.182;2022-12-24T05:43:43;11.40;99.90
19680;DHT22;9989;48.962;9.182;2022-12-24T05:46:10;11.30;99.90
19680;DHT22;9989;48.962;9.182;2022-12-24T05:48:36;11.30;99.90
19680;DHT22;9989;48.962;9.182;2022-12-24T05:51:10;11.30;99.90
19680;DHT22;9989;48.962;9.182;2022-12-24T05:53:36;11.30;99.90
19680;DHT22;9989;48.962;9.182;2022-12-24T05:56:11;11.20;99.90
19680;DHT22;9989;48.962;9.182;2022-12-24T05:58:38;11.30;99.90
19680;DHT22;9989;48.962;9.182;2022-12-24T06:01:04;11.20;99.90
19680;DHT22;9989;48.962;9.182;2022-12-24T06:03:30;11.10;99.90
19680;DHT22;9989;48.962;9.182;2022-12-24T06:06:03;11.10;99.90
19680;DHT22;9989;48.962;9.182;2022-12-24T06:08:30;11.10;99.90
19680;DHT22;9989;48.962;9.182;2022-12-24T06:10:57;11.10;99.90
19680;DHT22;9989;48.962;9.182;2022-12-24T06:13:24;11.10;99.90
19680;DHT22;9989;48.962;9.182;2022-12-24T06:15:52;11.20;99.90
19680;DHT22;9989;48.962;9.182;2022-12-24T06:18:18;11.10;99.90
19680;DHT22;9989;48.962;9.182;2022-12-24T06:20:44;11.10;99.90
19680;DHT22;9989;48.962;9.182;2022-12-24T06:23:09;11.10;99.90
19680;DHT22;9989;48.962;9.182;2022-12-24T06:25:35;11.10;99.90
19680;DHT22;9989;48.962;9.182;2022-12-24T06:28:00;11.10;99.90
19680;DHT22;9989;48.962;9.182;2022-12-24T06:30:29;11.10;99.90
19680;DHT22;9989;48.962;9.182;2022-12-24T06:32:55;11.00;99.90
19680;DHT22;9989;48.962;9.182;2022-12-24T06:35:20;11.00;99.90
19680;DHT22;9989;48.962;9.182;2022-12-24T06:37:46;11.00;99.90
19680;DHT22;9989;48.962;9.182;2022-12-24T06:40:11;11.00;99.90
19680;DHT22;9989;48.962;9.182;2022-12-24T06:42:37;11.00;99.90
19680;DHT22;9989;48.962;9.182;2022-12-24T06:45:03;11.00;99.90
19680;DHT22;9989;48.962;9.182;2022-12-24T06:47:28;10.90;99.90
19680;DHT22;9989;48.962;9.182;2022-12-24T06:49:54;10.90;99.90
19680;DHT22;9989;48.962;9.182;2022-12-24T06:52:19;10.90;99.90
19680;DHT22;9989;48.962;9.182;2022-12-24T06:54:45;10.90;99.90
19680;DHT22;9989;48.962;9.182;2022-12-24T06:57:10;10.80;99.90
19680;DHT22;9989;48.962;9.182;2022-12-24T06:59:36;10.80;99.90
19680;DHT22;9989;48.962;9.182;2022-12-24T07:02:01;10.80;99.90
19680;DHT22;9989;48.962;9.182;2022-12-24T07:04:27;10.80;99.90
19680;DHT22;9989;48.962;9.182;2022-12-24T07:06:53;10.80;99.90
19680;DHT22;9989;48.962;9.182;2022-12-24T07:09:18;10.70;99.90
19680;DHT22;9989;48.962;9.182;2022-12-24T07:11:44;10.70;99.90
19680;DHT22;9989;48.962;9.182;2022-12-24T07:14:09;10.70;99.90
19680;DHT22;9989;48.962;9.182;2022-12-24T07:16:35;10.70;99.90
19680;DHT22;9989;48.962;9.182;2022-12-24T07:19:00;10.70;99.90
19680;DHT22;9989;48.962;9.182;2022-12-24T07:21:27;10.70;99.90
19680;DHT22;9989;48.962;9.182;2022-12-24T07:23:52;10.70;99.90
19680;DHT22;9989;48.962;9.182;2022-12-24T07:26:18;10.70;99.90
19680;DHT22;9989;48.962;9.182;2022-12-24T07:28:43;10.70;99.90
19680;DHT22;9989;48.962;9.182;2022-12-24T07:31:09;10.70;99.90
19680;DHT22;9989;48.962;9.182;2022-12-24T07:33:34;10.70;99.90
19680;DHT22;9989;48.962;9.182;2022-12-24T07:36:02;10.70;99.90
19680;DHT22;9989;48.962;9.182;2022-12-24T07:38:28;10.70;99.90
19680;DHT22;9989;48.962;9.182;2022-12-24T07:40:54;10.70;99.90
19680;DHT22;9989;48.962;9.182;2022-12-24T07:43:20;10.70;99.90
19680;DHT22;9989;48.962;9.182;2022-12-24T07:45:46;10.70;99.90
19680;DHT22;9989;48.962;9.182;2022-12-24T07:48:11;10.70;99.90
19680;DHT22;9989;48.962;9.182;2022-12-24T07:50:37;10.70;99.90
19680;DHT22;9989;48.962;9.182;2022-12-24T07:53:03;10.80;99.90
19680;DHT22;9989;48.962;9.182;2022-12-24T07:55:29;10.80;99.90
19680;DHT22;9989;48.962;9.182;2022-12-24T07:57:54;10.80;99.90
19680;DHT22;9989;48.962;9.182;2022-12-24T08:00:20;10.80;99.90
19680;DHT22;9989;48.962;9.182;2022-12-24T08:02:45;10.80;99.90
19680;DHT22;9989;48.962;9.182;2022-12-24T08:05:11;10.90;99.90
19680;DHT22;9989;48.962;9.182;2022-12-24T08:07:37;10.90;99.90
19680;DHT22;9989;48.962;9.182;2022-12-24T08:10:03;11.00;99.90
19680;DHT22;9989;48.962;9.182;2022-12-24T08:12:28;11.00;99.90
19680;DHT22;9989;48.962;9.182;2022-12-24T08:14:54;11.00;99.90
19680;DHT22;9989;48.962;9.182;2022-12-24T08:17:20;11.10;99.90
19680;DHT22;9989;48.962;9.182;2022-12-24T08:19:45;11.10;99.90
19680;DHT22;9989;48.962;9.182;2022-12-24T08:22:11;11.20;99.90
19680;DHT22;9989;48.962;9.182;2022-12-24T08:24:36;11.20;99.90
19680;DHT22;9989;48.962;9.182;2022-12-24T08:27:02;11.20;99.90
19680;DHT22;9989;48.962;9.182;2022-12-24T08:29:27;11.30;99.90
19680;DHT22;9989;48.962;9.182;2022-12-24T08:31:53;11.40;99.90
19680;DHT22;9989;48.962;9.182;2022-12-24T08:34:19;11.50;99.90
19680;DHT22;9989;48.962;9.182;2022-12-24T08:36:44;11.70;99.90
19680;DHT22;9989;48.962;9.182;2022-12-24T08:39:10;11.90;99.90
19680;DHT22;9989;48.962;9.182;2022-12-24T08:41:35;12.00;99.90
19680;DHT22;9989;48.962;9.182;2022-12-24T08:44:01;12.10;99.90
19680;DHT22;9989;48.962;9.182;2022-12-24T08:46:27;12.10;99.90
19680;DHT22;9989;48.962;9.182;2022-12-24T08:48:52;12.10;99.90
19680;DHT22;9989;48.962;9.182;2022-12-24T08:51:18;12.20;99.90
19680;DHT22;9989;48.962;9.182;2022-12-24T08:53:44;12.20;99.90
19680;DHT22;9989;48.962;9.182;2022-12-24T08:56:11;12.30;99.90
19680;DHT22;9989;48.962;9.182;2022-12-24T08:58:37;12.50;99.90
19680;DHT22;9989;48.962;9.182;2022-12-24T09:01:13;12.80;99.90
19680;DHT22;9989;48.962;9.182;2022-12-24T09:03:39;13.10;99.90
19680;DHT22;9989;48.962;9.182;2022-12-24T09:06:06;13.50;99.90
19680;DHT22;9989;48.962;9.182;2022-12-24T09:08:32;14.40;99.90
19680;DHT22;9989;48.962;9.182;2022-12-24T09:11:06;15.30;99.90
19680;DHT22;9989;48.962;9.182;2022-12-24T09:13:32;16.20;99.90
19680;DHT22;9989;48.962;9.182;2022-12-24T09:15:57;16.60;99.90
19680;DHT22;9989;48.962;9.182;2022-12-24T09:18:24;16.90;99.90
19680;DHT22;9989;48.962;9.182;2022-12-24T09:20:49;16.90;99.90
19680;DHT22;9989;48.962;9.182;2022-12-24T09:23:15;16.70;99.90
19680;DHT22;9989;48.962;9.182;2022-12-24T09:25:41;16.40;99.90
19680;DHT22;9989;48.962;9.182;2022-12-24T09:28:08;16.30;99.90
19680;DHT22;9989;48.962;9.182;2022-12-24T09:30:35;16.20;99.90
19680;DHT22;9989;48.962;9.182;2022-12-24T09:33:01;16.20;99.90
19680;DHT22;9989;48.962;9.182;2022-12-24T09:35:27;16.30;99.90
19680;DHT22;9989;48.962;9.182;2022-12-24T09:37:53;16.40;99.90
19680;DHT22;9989;48.962;9.182;2022-12-24T09:40:38;16.50;99.90
19680;DHT22;9989;48.962;9.182;2022-12-24T09:43:18;16.60;99.90
19680;DHT22;9989;48.962;9.182;2022-12-24T09:46:14;17.00;99.90
19680;DHT22;9989;48.962;9.182;2022-12-24T09:48:46;17.90;99.90
19680;DHT22;9989;48.962;9.182;2022-12-24T09:51:45;19.10;99.90
19680;DHT22;9989;48.962;9.182;2022-12-24T09:54:21;20.40;99.90
19680;DHT22;9989;48.962;9.182;2022-12-24T09:56:48;21.80;99.90
19680;DHT22;9989;48.962;9.182;2022-12-24T09:59:25;22.70;96.60
19680;DHT22;9989;48.962;9.182;2022-12-24T10:01:56;22.70;91.70
19680;DHT22;9989;48.962;9.182;2022-12-24T10:04:28;23.00;90.40
19680;DHT22;9989;48.962;9.182;2022-12-24T10:12:29;24.10;78.90
19680;DHT22;9989;48.962;9.182;2022-12-24T10:22:59;23.30;75.70
19680;DHT22;9989;48.962;9.182;2022-12-24T10:28:30;22.00;77.20
19680;DHT22;9989;48.962;9.182;2022-12-24T10:31:02;20.70;82.10
19680;DHT22;9989;48.962;9.182;2022-12-24T10:33:41;19.40;87.50
19680;DHT22;9989;48.962;9.182;2022-12-24T10:36:15;18.40;91.20
19680;DHT22;9989;48.962;9.182;2022-12-24T10:38:43;17.50;93.80
19680;DHT22;9989;48.962;9.182;2022-12-24T10:41:09;16.80;95.80
19680;DHT22;9989;48.962;9.182;2022-12-24T10:43:37;16.20;98.40
19680;DHT22;9989;48.962;9.182;2022-12-24T10:46:15;15.70;99.90
19680;DHT22;9989;48.962;9.182;2022-12-24T10:48:45;15.20;99.90
19680;DHT22;9989;48.962;9.182;2022-12-24T10:53:53;14.50;99.90
19680;DHT22;9989;48.962;9.182;2022-12-24T10:56:21;14.20;99.90
19680;DHT22;9989;48.962;9.182;2022-12-24T10:58:52;14.00;99.90
19680;DHT22;9989;48.962;9.182;2022-12-24T11:02:09;13.90;99.90
19680;DHT22;9989;48.962;9.182;2022-12-24T11:04:04;13.70;99.90
19680;DHT22;9989;48.962;9.182;2022-12-24T11:06:30;13.60;99.90
19680;DHT22;9989;48.962;9.182;2022-12-24T11:09:17;13.60;99.90
19680;DHT22;9989;48.962;9.182;2022-12-24T11:11:44;13.50;99.90
19680;DHT22;9989;48.962;9.182;2022-12-24T11:14:15;13.40;99.90
19680;DHT22;9989;48.962;9.182;2022-12-24T11:16:56;13.40;99.90
19680;DHT22;9989;48.962;9.182;2022-12-24T11:19:34;13.30;99.90
19680;DHT22;9989;48.962;9.182;2022-12-24T11:22:04;13.30;99.90
19680;DHT22;9989;48.962;9.182;2022-12-24T11:24:33;13.30;99.90
19680;DHT22;9989;48.962;9.182;2022-12-24T11:27:38;13.30;99.90
19680;DHT22;9989;48.962;9.182;2022-12-24T11:32:43;13.20;99.90
19680;DHT22;9989;48.962;9.182;2022-12-24T11:35:19;13.10;99.90
19680;DHT22;9989;48.962;9.182;2022-12-24T11:37:47;13.00;99.90
19680;DHT22;9989;48.962;9.182;2022-12-24T11:40:21;13.00;99.90
19680;DHT22;9989;48.962;9.182;2022-12-24T11:42:48;12.90;99.90
19680;DHT22;9989;48.962;9.182;2022-12-24T11:45:23;12.80;99.90
19680;DHT22;9989;48.962;9.182;2022-12-24T11:47:50;12.80;99.90
19680;DHT22;9989;48.962;9.182;2022-12-24T11:50:33;12.70;99.90
19680;DHT22;9989;48.962;9.182;2022-12-24T11:55:56;12.50;99.90
19680;DHT22;9989;48.962;9.182;2022-12-24T11:58:54;12.50;99.90
19680;DHT22;9989;48.962;9.182;2022-12-24T12:01:44;12.40;99.90
19680;DHT22;9989;48.962;9.182;2022-12-24T12:06:47;12.30;99.90
19680;DHT22;9989;48.962;9.182;2022-12-24T12:09:22;12.30;99.90
19680;DHT22;9989;48.962;9.182;2022-12-24T12:12:04;12.30;99.90
19680;DHT22;9989;48.962;9.182;2022-12-24T12:14:38;12.30;99.90
19680;DHT22;9989;48.962;9.182;2022-12-24T12:17:43;12.30;99.90
19680;DHT22;9989;48.962;9.182;2022-12-24T12:20:24;12.20;99.90
19680;DHT22;9989;48.962;9.182;2022-12-24T12:25:27;12.20;99.90
19680;DHT22;9989;48.962;9.182;2022-12-24T12:27:55;12.30;99.90
19680;DHT22;9989;48.962;9.182;2022-12-24T12:30:22;12.50;99.90
19680;DHT22;9989;48.962;9.182;2022-12-24T12:33:34;12.60;99.90
19680;DHT22;9989;48.962;9.182;2022-12-24T12:35:42;12.80;99.90
19680;DHT22;9989;48.962;9.182;2022-12-24T12:38:27;13.10;99.90
19680;DHT22;9989;48.962;9.182;2022-12-24T12:47:15;13.50;99.90
19680;DHT22;9989;48.962;9.182;2022-12-24T12:58:08;14.00;99.90
19680;DHT22;9989;48.962;9.182;2022-12-24T13:00:39;14.00;99.90
19680;DHT22;9989;48.962;9.182;2022-12-24T13:17:34;13.80;99.90
19680;DHT22;9989;48.962;9.182;2022-12-24T13:20:13;13.80;99.90
19680;DHT22;9989;48.962;9.182;2022-12-24T13:23:12;14.00;99.90
19680;DHT22;9989;48.962;9.182;2022-12-24T13:25:44;15.10;99.90
19680;DHT22;9989;48.962;9.182;2022-12-24T13:28:30;16.20;99.90
19680;DHT22;9989;48.962;9.182;2022-12-24T13:33:55;17.40;99.90
19680;DHT22;9989;48.962;9.182;2022-12-24T13:36:24;17.80;99.90
19680;DHT22;9989;48.962;9.182;2022-12-24T13:39:18;18.00;99.90
19680;DHT22;9989;48.962;9.182;2022-12-24T13:41:49;18.40;99.90
19680;DHT22;9989;48.962;9.182;2022-12-24T13:44:17;18.60;99.90
19680;DHT22;9989;48.962;9.182;2022-12-24T13:47:03;18.50;99.90
19680;DHT22;9989;48.962;9.182;2022-12-24T13:49:31;18.10;99.90
19680;DHT22;9989;48.962;9.182;2022-12-24T13:54:37;17.30;99.90
19680;DHT22;9989;48.962;9.182;2022-12-24T14:02:57;16.10;99.90
19680;DHT22;9989;48.962;9.182;2022-12-24T14:05:37;15.80;99.90
19680;DHT22;9989;48.962;9.182;2022-12-24T14:08:07;15.50;99.90
19680;DHT22;9989;48.962;9.182;2022-12-24T14:10:39;15.30;99.90
19680;DHT22;9989;48.962;9.182;2022-12-24T14:13:06;15.10;99.90
19680;DHT22;9989;48.962;9.182;2022-12-24T14:18:22;14.80;99.90
19680;DHT22;9989;48.962;9.182;2022-12-24T14:20:53;14.70;99.90
19680;DHT22;9989;48.962;9.182;2022-12-24T14:23:56;14.60;99.90
19680;DHT22;9989;48.962;9.182;2022-12-24T14:26:27;14.60;99.90
19680;DHT22;9989;48.962;9.182;2022-12-24T14:29:15;14.50;99.90
19680;DHT22;9989;48.962;9.182;2022-12-24T14:31:53;14.40;99.90
19680;DHT22;9989;48.962;9.182;2022-12-24T14:34:19;14.30;99.90
19680;DHT22;9989;48.962;9.182;2022-12-24T14:36:45;14.20;99.90
19680;DHT22;9989;48.962;9.182;2022-12-24T14:42:03;14.00;99.90
19680;DHT22;9989;48.962;9.182;2022-12-24T14:44:50;13.90;99.90
19680;DHT22;9989;48.962;9.182;2022-12-24T14:55:48;13.70;99.90
19680;DHT22;9989;48.962;9.182;2022-12-24T15:00:54;13.50;99.90
19680;DHT22;9989;48.962;9.182;2022-12-24T15:03:22;13.40;99.90
19680;DHT22;9989;48.962;9.182;2022-12-24T15:06:03;13.30;99.90
19680;DHT22;9989;48.962;9.182;2022-12-24T15:08:37;13.20;99.90
19680;DHT22;9989;48.962;9.182;2022-12-24T15:11:06;13.10;99.90
19680;DHT22;9989;48.962;9.182;2022-12-24T15:13:40;13.00;99.90
19680;DHT22;9989;48.962;9.182;2022-12-24T15:16:10;12.80;99.90
19680;DHT22;9989;48.962;9.182;2022-12-24T15:18:46;12.80;99.90
19680;DHT22;9989;48.962;9.182;2022-12-24T15:21:19;12.70;99.90
19680;DHT22;9989;48.962;9.182;2022-12-24T15:23:49;12.60;99.90
19680;DHT22;9989;48.962;9.182;2022-12-24T15:26:30;12.50;99.90
19680;DHT22;9989;48.962;9.182;2022-12-24T15:28:58;12.50;99.90
19680;DHT22;9989;48.962;9.182;2022-12-24T15:31:26;12.40;99.90
19680;DHT22;9989;48.962;9.182;2022-12-24T15:33:54;12.30;99.90
19680;DHT22;9989;48.962;9.182;2022-12-24T15:36:43;12.20;99.90
19680;DHT22;9989;48.962;9.182;2022-12-24T15:39:13;12.10;99.90
19680;DHT22;9989;48.962;9.182;2022-12-24T15:41:43;12.10;99.90
19680;DHT22;9989;48.962;9.182;2022-12-24T15:44:31;12.10;99.90
19680;DHT22;9989;48.962;9.182;2022-12-24T15:47:02;12.00;99.90
19680;DHT22;9989;48.962;9.182;2022-12-24T15:49:31;11.90;99.90
19680;DHT22;9989;48.962;9.182;2022-12-24T15:52:17;11.90;99.90
19680;DHT22;9989;48.962;9.182;2022-12-24T15:54:46;11.80;99.90
19680;DHT22;9989;48.962;9.182;2022-12-24T15:57:41;11.80;99.90
19680;DHT22;9989;48.962;9.182;2022-12-24T16:00:20;11.80;99.90
19680;DHT22;9989;48.962;9.182;2022-12-24T16:02:47;11.70;99.90
19680;DHT22;9989;48.962;9.182;2022-12-24T16:05:29;11.70;99.90
19680;DHT22;9989;48.962;9.182;2022-12-24T16:11:05;11.60;99.90
19680;DHT22;9989;48.962;9.182;2022-12-24T16:13:35;11.60;99.90
19680;DHT22;9989;48.962;9.182;2022-12-24T16:16:10;11.60;99.90
19680;DHT22;9989;48.962;9.182;2022-12-24T16:19:00;11.60;99.90
19680;DHT22;9989;48.962;9.182;2022-12-24T16:21:31;11.60;99.90
19680;DHT22;9989;48.962;9.182;2022-12-24T16:24:19;11.60;99.90
19680;DHT22;9989;48.962;9.182;2022-12-24T16:26:46;11.60;99.90
19680;DHT22;9989;48.962;9.182;2022-12-24T16:29:13;11.60;99.90
19680;DHT22;9989;48.962;9.182;2022-12-24T16:34:35;11.60;99.90
19680;DHT22;9989;48.962;9.182;2022-12-24T16:37:00;11.60;99.90
19680;DHT22;9989;48.962;9.182;2022-12-24T16:39:32;11.60;99.90
19680;DHT22;9989;48.962;9.182;2022-12-24T16:42:00;11.50;99.90
19680;DHT22;9989;48.962;9.182;2022-12-24T16:44:47;11.50;99.90
19680;DHT22;9989;48.962;9.182;2022-12-24T16:47:25;11.50;99.90
19680;DHT22;9989;48.962;9.182;2022-12-24T16:49:51;11.50;99.90
19680;DHT22;9989;48.962;9.182;2022-12-24T16:52:25;11.50;99.90
19680;DHT22;9989;48.962;9.182;2022-12-24T16:54:53;11.50;99.90
19680;DHT22;9989;48.962;9.182;2022-12-24T16:57:19;11.50;99.90
19680;DHT22;9989;48.962;9.182;2022-12-24T16:59:45;11.40;99.90
19680;DHT22;9989;48.962;9.182;2022-12-24T17:02:13;11.40;99.90
19680;DHT22;9989;48.962;9.182;2022-12-24T17:04:40;11.40;99.90
19680;DHT22;9989;48.962;9.182;2022-12-24T17:07:06;11.40;99.90
19680;DHT22;9989;48.962;9.182;2022-12-24T17:09:32;11.40;99.90
19680;DHT22;9989;48.962;9.182;2022-12-24T17:11:58;11.40;99.90
19680;DHT22;9989;48.962;9.182;2022-12-24T17:14:23;11.30;99.90
19680;DHT22;9989;48.962;9.182;2022-12-24T17:16:49;11.30;99.90
19680;DHT22;9989;48.962;9.182;2022-12-24T17:19:15;11.30;99.90
19680;DHT22;9989;48.962;9.182;2022-12-24T17:21:41;11.30;99.90
19680;DHT22;9989;48.962;9.182;2022-12-24T17:24:07;11.20;99.90
19680;DHT22;9989;48.962;9.182;2022-12-24T17:26:33;11.20;99.90
19680;DHT22;9989;48.962;9.182;2022-12-24T17:28:59;11.20;99.90
19680;DHT22;9989;48.962;9.182;2022-12-24T17:31:28;11.20;99.90
19680;DHT22;9989;48.962;9.182;2022-12-24T17:33:53;11.20;99.90
19680;DHT22;9989;48.962;9.182;2022-12-24T17:36:19;11.20;99.90
19680;DHT22;9989;48.962;9.182;2022-12-24T17:38:45;11.20;99.90
19680;DHT22;9989;48.962;9.182;2022-12-24T17:41:13;11.20;99.90
19680;DHT22;9989;48.962;9.182;2022-12-24T17:43:40;11.20;99.90
19680;DHT22;9989;48.962;9.182;2022-12-24T17:46:07;11.20;99.90
19680;DHT22;9989;48.962;9.182;2022-12-24T17:48:33;11.20;99.90
19680;DHT22;9989;48.962;9.182;2022-12-24T17:51:03;11.20;99.90
19680;DHT22;9989;48.962;9.182;2022-12-24T17:53:34;11.20;99.90
19680;DHT22;9989;48.962;9.182;2022-12-24T17:56:00;11.20;99.90
19680;DHT22;9989;48.962;9.182;2022-12-24T17:58:28;11.20;99.90